createdAt,value
2018-03-04T00:02:24.195Z,72.62
2018-03-04T00:04:50.533Z,72.39
2018-03-04T00:07:16.868Z,71.86
2018-03-04T00:09:43.230Z,71.85
2018-03-04T00:12:09.598Z,72.52
2018-03-04T00:14:36.057Z,72.41
2018-03-04T00:17:02.432Z,71.70
2018-03-04T00:19:28.786Z,71.35
2018-03-04T00:21:55.276Z,71.52
2018-03-04T00:24:21.846Z,70.84
2018-03-04T00:26:48.250Z,70.86
2018-03-04T00:29:14.567Z,71.17
2018-03-04T00:31:42.010Z,71.90
2018-03-04T00:34:08.304Z,72.01
2018-03-04T00:36:34.625Z,71.94
2018-03-04T00:39:00.969Z,71.51
2018-03-04T00:41:27.414Z,70.25
2018-03-04T00:43:53.744Z,70.96
2018-03-04T00:46:20.102Z,70.57
2018-03-04T00:48:46.442Z,71.71
2018-03-04T00:51:12.745Z,71.86
2018-03-04T00:53:39.222Z,71.74
2018-03-04T00:56:05.559Z,70.90
2018-03-04T00:58:31.894Z,70.56
2018-03-04T01:00:58.281Z,70.00
2018-03-04T01:03:26.723Z,70.26
2018-03-04T01:05:53.044Z,69.63
2018-03-04T01:08:19.461Z,69.73
2018-03-04T01:10:45.836Z,70.43
2018-03-04T01:13:12.345Z,71.99
2018-03-04T01:15:38.757Z,71.72
2018-03-04T01:18:05.078Z,72.93
2018-03-04T01:20:31.407Z,72.59
2018-03-04T01:22:57.807Z,72.75
2018-03-04T01:25:24.113Z,71.94
2018-03-04T01:27:50.499Z,75.23
2018-03-04T01:30:16.865Z,78.94
2018-03-04T01:32:43.214Z,81.28
2018-03-04T01:35:09.555Z,81.68
2018-03-04T01:37:35.924Z,82.87
2018-03-04T01:40:02.273Z,84.09
2018-03-04T01:42:28.674Z,86.30
2018-03-04T01:44:55.044Z,86.31
2018-03-04T01:47:21.414Z,86.80
2018-03-04T01:49:47.722Z,87.89
2018-03-04T01:52:14.111Z,88.76
2018-03-04T01:54:40.481Z,89.28
2018-03-04T01:57:06.809Z,89.86
2018-03-04T01:59:33.162Z,89.36
2018-03-04T02:02:07.194Z,89.19
2018-03-04T02:04:33.524Z,90.18
2018-03-04T02:06:59.872Z,89.68
2018-03-04T02:09:27.225Z,90.51
2018-03-04T02:11:53.678Z,90.27
2018-03-04T02:14:19.989Z,89.78
2018-03-04T02:16:46.309Z,90.32
2018-03-04T02:19:12.703Z,90.61
2018-03-04T02:21:39.083Z,90.99
2018-03-04T02:24:05.406Z,89.89
2018-03-04T02:26:31.812Z,90.05
2018-03-04T02:28:58.113Z,89.89
2018-03-04T02:31:24.525Z,89.95
2018-03-04T02:33:50.922Z,89.52
2018-03-04T02:36:17.236Z,90.46
2018-03-04T02:38:43.630Z,89.98
2018-03-04T02:41:10.094Z,90.36
2018-03-04T02:43:36.444Z,89.92
2018-03-04T02:46:02.802Z,89.29
2018-03-04T02:48:29.158Z,89.31
2018-03-04T02:50:55.617Z,89.48
2018-03-04T02:53:22.049Z,89.27
2018-03-04T02:55:48.436Z,89.30
2018-03-04T02:58:14.809Z,89.58
2018-03-04T03:00:41.228Z,89.62
2018-03-04T03:03:07.693Z,89.62
2018-03-04T03:05:34.136Z,89.40
2018-03-04T03:08:00.476Z,89.59
2018-03-04T03:10:26.873Z,89.62
2018-03-04T03:12:53.261Z,89.61
2018-03-04T03:15:19.550Z,88.43
2018-03-04T03:17:45.919Z,88.57
2018-03-04T03:20:12.240Z,89.42
2018-03-04T03:22:38.686Z,89.08
2018-03-04T03:25:05.042Z,89.21
2018-03-04T03:27:31.370Z,89.51
2018-03-04T03:29:57.681Z,89.26
2018-03-04T03:32:24.145Z,88.08
2018-03-04T03:34:50.535Z,88.46
2018-03-04T03:37:16.952Z,88.55
2018-03-04T03:39:43.421Z,88.78
2018-03-04T03:42:09.982Z,88.81
2018-03-04T03:44:36.442Z,89.69
2018-03-04T03:47:02.914Z,89.32
2018-03-04T03:49:29.354Z,89.19
2018-03-04T03:51:55.801Z,89.57
2018-03-04T03:54:22.220Z,88.76
2018-03-04T03:56:48.679Z,89.53
2018-03-04T03:59:15.018Z,88.79
2018-03-04T04:01:44.794Z,88.64
2018-03-04T04:04:11.139Z,88.92
2018-03-04T04:06:37.493Z,89.34
2018-03-04T04:09:04.069Z,89.27
2018-03-04T04:11:30.384Z,89.67
2018-03-04T04:13:56.737Z,89.23
2018-03-04T04:16:23.122Z,90.31
2018-03-04T04:18:49.451Z,89.68
2018-03-04T04:21:15.787Z,89.99
2018-03-04T04:23:42.223Z,91.11
2018-03-04T04:26:08.546Z,91.56
2018-03-04T04:28:34.882Z,91.87
2018-03-04T04:31:01.249Z,91.68
2018-03-04T04:33:27.596Z,92.20
2018-03-04T04:35:53.932Z,92.13
2018-03-04T04:38:20.354Z,92.49
2018-03-04T04:40:46.672Z,93.14
2018-03-04T04:43:13.034Z,92.73
2018-03-04T04:45:39.397Z,93.29
2018-03-04T04:48:05.739Z,93.54
2018-03-04T04:50:32.060Z,93.43
2018-03-04T04:52:58.509Z,93.23
2018-03-04T04:55:24.835Z,93.30
2018-03-04T04:57:51.137Z,93.46
2018-03-04T05:00:17.484Z,93.26
2018-03-04T05:02:43.857Z,93.19
2018-03-04T05:05:10.236Z,93.54
2018-03-04T05:07:36.673Z,93.44
2018-03-04T05:10:03.099Z,93.66
2018-03-04T05:12:29.546Z,93.59
2018-03-04T05:14:55.992Z,93.59
2018-03-04T05:17:22.294Z,93.66
2018-03-04T05:19:48.588Z,93.75
2018-03-04T05:22:15.015Z,93.94
2018-03-04T05:24:41.403Z,94.15
2018-03-04T05:27:07.729Z,93.95
2018-03-04T05:29:34.072Z,93.64
2018-03-04T05:32:00.468Z,94.08
2018-03-04T05:34:26.798Z,94.44
2018-03-04T05:36:53.173Z,94.17
2018-03-04T05:39:19.485Z,94.60
2018-03-04T05:41:45.830Z,94.18
2018-03-04T05:44:13.104Z,94.29
2018-03-04T05:46:39.389Z,93.99
2018-03-04T05:49:05.719Z,94.04
2018-03-04T05:51:32.089Z,93.99
2018-03-04T05:53:58.516Z,94.42
2018-03-04T05:56:24.891Z,94.04
2018-03-04T05:58:51.298Z,93.51
2018-03-04T06:01:17.663Z,93.34
2018-03-04T06:03:44.110Z,93.77
2018-03-04T06:06:10.493Z,93.76
2018-03-04T06:08:36.856Z,93.33
2018-03-04T06:11:03.183Z,93.71
2018-03-04T06:13:29.735Z,93.78
2018-03-04T06:15:56.071Z,93.77
2018-03-04T06:18:22.417Z,93.76
2018-03-04T06:20:48.869Z,93.39
2018-03-04T06:23:15.381Z,93.69
2018-03-04T06:25:41.717Z,93.56
2018-03-04T06:28:08.555Z,93.44
2018-03-04T06:30:35.674Z,93.63
2018-03-04T06:33:04.723Z,93.28
2018-03-04T06:35:31.274Z,93.24
2018-03-04T06:37:57.641Z,93.24
2018-03-04T06:40:24.458Z,93.89
2018-03-04T06:42:51.167Z,93.75
2018-03-04T06:45:17.775Z,93.36
2018-03-04T06:47:44.246Z,93.49
2018-03-04T06:50:10.772Z,93.65
2018-03-04T06:52:37.235Z,93.58
2018-03-04T06:55:03.644Z,93.30
2018-03-04T06:57:30.149Z,93.89
2018-03-04T06:59:56.561Z,93.69
2018-03-04T07:02:23.278Z,93.73
2018-03-04T07:04:49.794Z,94.08
2018-03-04T07:07:16.317Z,93.89
2018-03-04T07:09:42.920Z,92.94
2018-03-04T07:12:12.840Z,93.29
2018-03-04T07:14:39.740Z,92.09
2018-03-04T07:17:06.197Z,92.52
2018-03-04T07:19:32.662Z,93.04
2018-03-04T07:22:00.109Z,93.32
2018-03-04T07:24:26.477Z,93.13
2018-03-04T07:26:52.962Z,93.01
2018-03-04T07:29:19.429Z,92.22
2018-03-04T07:31:46.052Z,92.57
2018-03-04T07:34:13.792Z,93.29
2018-03-04T07:36:40.289Z,93.38
2018-03-04T07:39:06.819Z,93.11
2018-03-04T07:41:33.299Z,93.49
2018-03-04T07:44:00.270Z,93.37
2018-03-04T07:46:26.777Z,92.62
2018-03-04T07:48:53.611Z,93.58
2018-03-04T07:51:21.244Z,93.04
2018-03-04T07:53:47.969Z,92.52
2018-03-04T07:56:14.600Z,92.63
2018-03-04T07:58:41.097Z,92.89
2018-03-04T08:01:07.688Z,93.14
2018-03-04T08:03:34.415Z,92.21
2018-03-04T08:06:00.843Z,92.07
2018-03-04T08:08:27.291Z,92.16
2018-03-04T08:10:53.795Z,92.35
2018-03-04T08:13:20.286Z,91.63
2018-03-04T08:15:46.730Z,91.20
2018-03-04T08:18:13.128Z,90.64
2018-03-04T08:20:40.276Z,89.52
2018-03-04T08:23:06.754Z,89.19
2018-03-04T08:25:33.705Z,89.37
2018-03-04T08:28:12.388Z,89.01
2018-03-04T08:30:38.951Z,87.17
2018-03-04T08:33:05.851Z,87.92
2018-03-04T08:35:32.480Z,87.79
2018-03-04T08:37:58.993Z,87.46
2018-03-04T08:40:26.309Z,87.26
2018-03-04T08:42:53.007Z,86.83
2018-03-04T08:45:19.410Z,86.49
2018-03-04T08:47:45.943Z,86.52
2018-03-04T08:50:12.385Z,87.13
2018-03-04T08:52:39.084Z,87.19
2018-03-04T08:55:05.545Z,87.00
2018-03-04T08:57:31.961Z,87.56
2018-03-04T08:59:58.473Z,86.75
2018-03-04T09:02:25.022Z,87.20
2018-03-04T09:04:51.508Z,87.26
2018-03-04T09:07:19.178Z,87.15
2018-03-04T09:09:45.831Z,87.20
2018-03-04T09:12:13.457Z,87.48
2018-03-04T09:14:40.272Z,87.81
2018-03-04T09:17:07.006Z,87.23
2018-03-04T09:19:33.448Z,85.64
2018-03-04T09:22:00.103Z,85.38
2018-03-04T09:24:26.951Z,83.92
2018-03-04T09:26:54.080Z,82.85
2018-03-04T09:29:20.663Z,84.86
2018-03-04T09:31:47.371Z,85.59
2018-03-04T09:34:14.190Z,84.99
2018-03-04T09:36:40.836Z,85.34
2018-03-04T09:39:07.458Z,84.27
2018-03-04T09:41:34.000Z,85.42
2018-03-04T09:44:00.610Z,84.64
2018-03-04T09:46:27.486Z,82.70
2018-03-04T09:48:54.079Z,82.91
2018-03-04T09:51:20.542Z,84.69
2018-03-04T09:53:47.104Z,80.66
2018-03-04T09:56:13.615Z,80.50
2018-03-04T09:58:40.487Z,83.91
2018-03-04T10:01:08.275Z,83.26
2018-03-04T10:03:37.019Z,83.66
2018-03-04T10:06:04.009Z,85.59
2018-03-04T10:08:31.503Z,83.39
2018-03-04T10:10:59.151Z,84.82
2018-03-04T10:13:26.334Z,81.22
2018-03-04T10:15:53.509Z,81.42
2018-03-04T10:18:20.480Z,83.40
2018-03-04T10:20:46.918Z,83.07
2018-03-04T10:23:13.510Z,85.06
2018-03-04T10:25:40.615Z,83.00
2018-03-04T10:28:07.493Z,82.00
2018-03-04T10:30:34.112Z,83.14
2018-03-04T10:33:01.047Z,84.16
2018-03-04T10:35:28.465Z,82.97
2018-03-04T10:37:55.079Z,83.77
2018-03-04T10:40:22.462Z,84.10
2018-03-04T10:42:50.635Z,84.07
2018-03-04T10:45:21.173Z,82.62
2018-03-04T10:47:50.660Z,82.11
2018-03-04T10:50:18.420Z,82.48
2018-03-04T10:52:47.669Z,84.23
2018-03-04T10:55:15.608Z,82.86
2018-03-04T10:57:43.198Z,83.96
2018-03-04T11:00:10.709Z,81.39
2018-03-04T11:02:38.914Z,83.10
2018-03-04T11:05:07.158Z,83.20
2018-03-04T11:07:34.671Z,84.62
2018-03-04T11:10:02.732Z,82.49
2018-03-04T11:12:30.263Z,80.93
2018-03-04T11:14:57.751Z,83.97
2018-03-04T11:17:25.571Z,82.26
2018-03-04T11:19:53.690Z,80.18
2018-03-04T11:22:21.461Z,81.54
2018-03-04T11:24:49.608Z,76.94
2018-03-04T12:14:27.108Z,71.28
2018-03-04T12:16:53.470Z,72.44
2018-03-04T12:19:21.598Z,71.35
2018-03-04T12:21:49.120Z,71.06
2018-03-04T12:24:16.452Z,69.88
2018-03-04T12:26:44.386Z,71.22
2018-03-04T12:29:13.360Z,71.22
2018-03-04T12:31:42.364Z,72.22
2018-03-04T12:34:10.482Z,74.47
2018-03-04T12:36:38.838Z,72.64
2018-03-04T12:39:06.305Z,71.17
2018-03-04T12:41:34.016Z,70.70
2018-03-04T12:44:02.933Z,68.92
2018-03-04T12:46:30.709Z,73.40
2018-03-04T12:48:59.552Z,73.92
2018-03-04T12:51:26.060Z,70.99
2018-03-04T12:53:52.567Z,68.72
2018-03-04T12:56:19.850Z,71.96
2018-03-04T12:58:47.833Z,71.66
2018-03-04T13:01:14.497Z,70.73
2018-03-04T13:03:52.288Z,72.65
2018-03-04T13:06:19.031Z,71.37
2018-03-04T13:08:45.559Z,70.05
2018-03-04T13:11:12.520Z,67.60
2018-03-04T13:13:45.300Z,68.84
2018-03-04T13:16:11.830Z,67.19
2018-03-04T13:18:38.744Z,69.83
2018-03-04T13:21:05.272Z,69.13
2018-03-04T13:23:35.557Z,67.52
2018-03-04T13:26:02.788Z,70.93
2018-03-04T13:28:29.559Z,71.29
2018-03-04T13:30:56.010Z,72.56
2018-03-04T13:33:27.429Z,68.82
2018-03-04T13:35:54.194Z,70.43
2018-03-04T13:38:20.721Z,72.34
2018-03-04T13:40:47.086Z,67.10
2018-03-04T13:43:17.183Z,70.41
2018-03-04T13:45:44.109Z,68.35
2018-03-04T13:48:11.163Z,72.45
2018-03-04T13:50:37.720Z,73.03
2018-03-04T13:53:08.679Z,71.28
2018-03-04T13:55:36.261Z,71.76
2018-03-04T13:58:02.876Z,74.08
2018-03-04T14:00:29.310Z,74.30
2018-03-04T14:02:57.512Z,74.64
2018-03-04T14:05:24.753Z,76.82
2018-03-04T14:07:51.206Z,75.99
2018-03-04T14:10:18.344Z,74.39
2018-03-04T14:12:45.336Z,75.12
2018-03-04T14:15:12.095Z,74.27
2018-03-04T14:17:38.857Z,76.75
2018-03-04T14:20:05.912Z,75.21
2018-03-04T14:22:32.431Z,73.55
2018-03-04T14:24:59.162Z,74.20
2018-03-04T14:27:25.892Z,74.08
2018-03-04T14:29:53.123Z,74.67
2018-03-04T14:32:26.604Z,74.99
2018-03-04T14:34:53.131Z,74.98
2018-03-04T14:37:19.690Z,73.11
2018-03-04T14:39:46.234Z,74.19
2018-03-04T14:42:19.892Z,73.57
2018-03-04T14:44:46.785Z,73.30
2018-03-04T14:47:13.613Z,73.62
2018-03-04T14:49:40.642Z,76.34
2018-03-04T14:52:07.358Z,77.02
2018-03-04T14:54:33.931Z,74.15
2018-03-04T14:57:00.462Z,75.68
2018-03-04T14:59:26.864Z,76.74
2018-03-04T15:01:53.279Z,77.46
2018-03-04T15:04:20.108Z,78.25
2018-03-04T15:06:46.851Z,79.72
2018-03-04T15:09:13.229Z,80.12
2018-03-04T15:11:39.773Z,81.66
2018-03-04T15:14:06.448Z,79.81
2018-03-04T15:16:33.508Z,82.00
2018-03-04T15:19:00.166Z,82.37
2018-03-04T15:21:26.909Z,80.92
2018-03-04T15:23:53.369Z,80.26
2018-03-04T15:26:20.161Z,80.25
2018-03-04T15:28:46.874Z,77.85
2018-03-04T15:31:13.355Z,81.61
2018-03-04T15:33:39.898Z,78.44
2018-03-04T15:36:06.371Z,82.10
2018-03-04T15:38:32.805Z,80.75
2018-03-04T15:40:59.481Z,81.08
2018-03-04T15:43:26.133Z,79.11
2018-03-04T15:45:52.710Z,82.38
2018-03-04T15:48:19.266Z,82.96
2018-03-04T15:50:46.394Z,81.81
2018-03-04T15:53:12.965Z,82.16
2018-03-04T15:55:39.501Z,83.30
2018-03-04T15:58:06.026Z,83.19
2018-03-04T16:00:32.475Z,83.13
2018-03-04T16:02:59.847Z,82.70
2018-03-04T16:05:27.896Z,83.82
2018-03-04T16:07:55.082Z,83.54
2018-03-04T16:10:22.314Z,83.50
2018-03-04T16:12:51.545Z,84.38
2018-03-04T16:15:19.301Z,84.29
2018-03-04T16:17:47.127Z,84.03
2018-03-04T16:20:14.429Z,84.61
2018-03-04T16:22:42.890Z,84.70
2018-03-04T16:25:09.826Z,85.12
2018-03-04T16:27:36.440Z,84.93
2018-03-04T16:30:03.066Z,84.60
2018-03-04T16:32:29.814Z,84.61
2018-03-04T16:34:56.412Z,85.28
2018-03-04T16:37:23.147Z,86.00
2018-03-04T16:39:49.774Z,85.44
2018-03-04T16:42:17.490Z,84.85
2018-03-04T16:44:44.052Z,85.11
2018-03-04T16:47:10.993Z,84.91
2018-03-04T16:49:37.826Z,83.99
2018-03-04T16:52:04.569Z,85.44
2018-03-04T16:54:32.446Z,86.19
2018-03-04T16:56:59.070Z,86.45
2018-03-04T16:59:25.689Z,86.46
2018-03-04T17:01:52.524Z,85.99
2018-03-04T17:04:19.736Z,85.47
2018-03-04T17:06:46.533Z,85.40
2018-03-04T17:09:13.096Z,84.82
2018-03-04T17:11:39.679Z,85.43
2018-03-04T17:14:06.219Z,85.77
2018-03-04T17:16:32.884Z,86.09
2018-03-04T17:19:00.183Z,85.58
2018-03-04T17:21:27.602Z,85.47
2018-03-04T17:23:54.744Z,86.83
2018-03-04T17:26:21.643Z,87.35
2018-03-04T17:28:48.685Z,87.23
2018-03-04T17:31:15.492Z,87.29
2018-03-04T17:33:42.330Z,87.72
2018-03-04T17:36:09.446Z,87.74
2018-03-04T17:38:37.677Z,87.53
2018-03-04T17:41:04.404Z,87.70
2018-03-04T17:43:33.024Z,87.21
2018-03-04T17:45:59.641Z,87.64
2018-03-04T17:48:26.231Z,88.53
2018-03-04T17:50:52.704Z,88.21
2018-03-04T17:53:21.335Z,88.22
2018-03-04T17:55:48.330Z,88.36
2018-03-04T17:58:15.301Z,88.42
2018-03-04T18:00:42.252Z,87.71
2018-03-04T18:03:13.626Z,88.94
2018-03-04T18:05:40.005Z,87.65
2018-03-04T18:08:06.671Z,87.78
2018-03-04T18:10:33.254Z,89.37
2018-03-04T18:13:04.177Z,87.64
2018-03-04T18:15:30.722Z,87.82
2018-03-04T18:17:57.499Z,88.18
2018-03-04T18:20:24.327Z,88.08
2018-03-04T18:22:51.201Z,87.78
2018-03-04T18:25:17.777Z,88.18
2018-03-04T18:27:44.227Z,88.74
2018-03-04T18:30:11.012Z,88.24
2018-03-04T18:32:37.662Z,87.81
2018-03-04T18:35:04.368Z,87.98
2018-03-04T18:37:30.931Z,87.54
2018-03-04T18:39:57.385Z,88.29
2018-03-04T18:42:23.996Z,87.94
2018-03-04T18:44:51.088Z,88.66
2018-03-04T18:47:18.177Z,89.05
2018-03-04T18:49:44.739Z,89.22
2018-03-04T18:52:11.367Z,88.60
2018-03-04T18:54:38.082Z,88.96
2018-03-04T18:57:04.731Z,89.27
2018-03-04T18:59:31.633Z,89.27
2018-03-04T19:01:58.491Z,89.01
2018-03-04T19:04:25.554Z,89.00
2018-03-04T19:06:52.286Z,88.92
2018-03-04T19:09:18.792Z,89.11
2018-03-04T19:11:45.600Z,89.26
2018-03-04T19:14:14.314Z,89.90
2018-03-04T19:16:40.974Z,89.23
2018-03-04T19:19:07.944Z,89.37
2018-03-04T19:21:34.547Z,89.97
2018-03-04T19:24:01.277Z,90.35
2018-03-04T19:26:27.882Z,91.56
2018-03-04T19:28:54.694Z,91.86
2018-03-04T19:31:21.730Z,90.74
2018-03-04T19:33:56.074Z,91.74
2018-03-04T19:36:22.600Z,92.49
2018-03-04T19:38:49.180Z,92.58
2018-03-04T19:41:16.134Z,93.30
2018-03-04T19:43:48.315Z,92.49
2018-03-04T19:46:14.758Z,93.03
2018-03-04T19:48:41.339Z,92.96
2018-03-04T19:51:07.850Z,93.56
2018-03-04T19:53:35.304Z,93.75
2018-03-04T19:56:02.031Z,94.37
2018-03-04T19:58:28.647Z,94.45
2018-03-04T20:00:55.206Z,94.46
2018-03-04T20:03:21.765Z,94.28
2018-03-04T20:05:48.294Z,94.23
2018-03-04T20:08:15.065Z,94.64
2018-03-04T20:10:41.553Z,95.11
2018-03-04T20:13:08.121Z,95.33
2018-03-04T20:15:34.918Z,95.53
2018-03-04T20:18:01.341Z,95.52
2018-03-04T20:20:28.707Z,95.66
2018-03-04T20:22:55.414Z,95.94
2018-03-04T20:25:22.146Z,95.93
2018-03-04T20:27:48.572Z,96.12
2018-03-04T20:30:15.156Z,96.28
2018-03-04T20:32:41.666Z,96.46
2018-03-04T20:35:08.625Z,96.69
2018-03-04T20:37:35.110Z,96.67
2018-03-04T20:40:01.623Z,96.76
2018-03-04T20:42:28.575Z,96.73
2018-03-04T20:44:55.074Z,96.30
2018-03-04T20:47:21.598Z,96.08
2018-03-04T20:49:47.976Z,96.64
2018-03-04T20:52:14.395Z,96.47
2018-03-04T20:54:42.915Z,97.00
2018-03-04T20:57:09.387Z,96.76
2018-03-04T20:59:35.755Z,97.07
2018-03-04T21:02:02.169Z,97.12
2018-03-04T21:04:28.594Z,96.36
2018-03-04T21:06:55.147Z,97.05
2018-03-04T21:09:21.642Z,97.24
2018-03-04T21:11:48.063Z,97.36
2018-03-04T21:14:14.645Z,97.58
2018-03-04T21:16:41.071Z,97.69
2018-03-04T21:19:07.626Z,97.48
2018-03-04T21:21:34.201Z,97.34
2018-03-04T21:24:04.933Z,97.53
2018-03-04T21:26:31.305Z,97.86
2018-03-04T21:28:57.679Z,97.28
2018-03-04T21:31:24.032Z,97.17
2018-03-04T21:33:50.437Z,97.25
2018-03-04T21:36:17.028Z,97.68
2018-03-04T21:38:43.355Z,97.48
2018-03-04T21:41:09.710Z,97.83
2018-03-04T21:43:39.441Z,97.77
2018-03-04T21:46:05.819Z,98.19
2018-03-04T21:48:32.184Z,97.92
2018-03-04T21:50:58.593Z,97.39
2018-03-04T21:53:25.103Z,97.63
2018-03-04T21:55:51.445Z,97.58
2018-03-04T21:58:17.887Z,97.58
2018-03-04T22:00:44.293Z,98.04
2018-03-04T22:03:10.692Z,98.10
2018-03-04T22:05:37.240Z,98.11
2018-03-04T22:08:03.670Z,97.98
2018-03-04T22:10:30.022Z,98.08
2018-03-04T22:12:56.492Z,98.22
2018-03-04T22:15:22.810Z,98.17
2018-03-04T22:17:49.204Z,98.07
2018-03-04T22:20:15.607Z,98.52
2018-03-04T22:22:42.060Z,98.38
2018-03-04T22:25:08.614Z,98.41
2018-03-04T22:27:35.138Z,98.82
2018-03-04T22:30:01.472Z,98.69
2018-03-04T22:32:27.860Z,98.25
2018-03-04T22:34:54.506Z,98.27
2018-03-04T22:37:21.215Z,98.89
2018-03-04T22:39:47.629Z,98.82
2018-03-04T22:42:14.029Z,98.39
2018-03-04T22:44:40.513Z,98.55
2018-03-04T22:47:06.982Z,98.53
2018-03-04T22:49:33.512Z,98.48
2018-03-04T22:51:59.878Z,98.61
2018-03-04T22:54:28.246Z,98.79
2018-03-04T22:56:54.657Z,98.81
2018-03-04T22:59:21.084Z,98.76
2018-03-04T23:01:47.467Z,99.06
2018-03-04T23:04:14.077Z,99.13
2018-03-04T23:06:40.440Z,98.82
2018-03-04T23:09:06.799Z,98.80
2018-03-04T23:11:33.167Z,98.79
2018-03-04T23:14:03.088Z,99.09
2018-03-04T23:16:29.426Z,98.88
2018-03-04T23:18:55.815Z,99.01
2018-03-04T23:21:22.212Z,99.18
2018-03-04T23:23:48.624Z,98.91
2018-03-04T23:26:15.000Z,99.01
2018-03-04T23:28:41.550Z,98.72
2018-03-04T23:31:07.876Z,98.88
2018-03-04T23:33:34.254Z,99.19
2018-03-04T23:36:00.626Z,98.92
2018-03-04T23:38:26.985Z,99.31
2018-03-04T23:40:53.295Z,99.17
2018-03-04T23:43:19.713Z,98.83
2018-03-04T23:45:46.029Z,98.82
2018-03-04T23:48:12.379Z,98.96
2018-03-04T23:50:38.711Z,98.82
2018-03-04T23:53:05.218Z,99.16
2018-03-04T23:55:31.680Z,98.79
2018-03-04T23:57:58.009Z,98.91
